createdAt,value
2022-11-02T00:00:32.521Z,8.10
2022-11-02T00:02:59.730Z,7.90
2022-11-02T00:05:26.720Z,8.00
2022-11-02T00:07:58.984Z,7.90
2022-11-02T00:10:25.278Z,8.00
2022-11-02T00:12:51.763Z,8.00
2022-11-02T00:15:18.506Z,7.90
2022-11-02T00:17:49.551Z,7.50
2022-11-02T00:20:17.988Z,7.30
2022-11-02T00:22:44.260Z,7.30
2022-11-02T00:25:12.937Z,7.30
2022-11-02T00:27:39.472Z,7.40
2022-11-02T00:30:07.219Z,7.60
2022-11-02T00:32:33.468Z,7.80
2022-11-02T00:34:59.620Z,7.90
2022-11-02T00:37:25.958Z,8.90
2022-11-02T00:39:52.655Z,7.90
2022-11-02T00:42:19.473Z,7.80
2022-11-02T00:44:47.754Z,7.50
2022-11-02T00:47:14.432Z,7.30
2022-11-02T00:49:41.256Z,7.20
2022-11-02T00:52:09.236Z,7.10
2022-11-02T00:54:36.588Z,7.10
2022-11-02T00:57:02.912Z,7.10
2022-11-02T00:59:29.440Z,7.40
2022-11-02T01:01:55.789Z,7.50
2022-11-02T01:04:22.639Z,7.60
2022-11-02T01:06:48.820Z,7.70
2022-11-02T01:09:15.871Z,7.70
2022-11-02T01:11:42.724Z,7.60
2022-11-02T01:14:09.360Z,7.60
2022-11-02T01:16:36.449Z,7.50
2022-11-02T01:19:02.731Z,8.80
2022-11-02T01:21:28.964Z,7.20
2022-11-02T01:23:58.469Z,7.10
2022-11-02T01:26:24.697Z,7.10
2022-11-02T01:28:53.530Z,7.10
2022-11-02T01:31:19.702Z,7.00
2022-11-02T01:33:46.250Z,6.90
2022-11-02T01:36:15.506Z,6.90
2022-11-02T01:38:41.882Z,7.20
2022-11-02T01:41:09.338Z,7.30
2022-11-02T01:43:35.851Z,7.50
2022-11-02T01:46:16.202Z,7.50
2022-11-02T01:49:05.360Z,7.20
2022-11-02T01:51:38.609Z,6.90
2022-11-02T01:54:22.124Z,6.80
2022-11-02T01:56:53.158Z,6.90
2022-11-02T01:59:21.945Z,6.90
2022-11-02T02:01:48.404Z,7.00
2022-11-02T02:04:14.810Z,7.20
2022-11-02T02:06:41.018Z,7.50
2022-11-02T02:09:07.566Z,7.70
2022-11-02T02:11:35.572Z,7.70
2022-11-02T02:14:26.982Z,7.90
2022-11-02T02:17:28.124Z,8.00
2022-11-02T02:20:36.944Z,8.00
2022-11-02T02:23:38.016Z,8.10
2022-11-02T02:28:52.663Z,7.80
2022-11-02T02:34:10.114Z,7.30
2022-11-02T02:36:47.604Z,6.90
2022-11-02T02:40:05.094Z,6.90
2022-11-02T02:42:37.769Z,7.10
2022-11-02T02:45:19.543Z,7.40
2022-11-02T02:47:49.417Z,7.50
2022-11-02T02:50:22.076Z,7.50
2022-11-02T02:52:50.219Z,6.90
2022-11-02T02:55:20.503Z,7.70
2022-11-02T02:57:46.808Z,7.70
2022-11-02T03:00:18.025Z,7.70
2022-11-02T03:03:00.574Z,7.60
2022-11-02T03:05:31.554Z,7.30
2022-11-02T03:08:05.552Z,7.00
2022-11-02T03:11:00.237Z,6.80
2022-11-02T03:15:06.988Z,6.80
2022-11-02T03:19:24.282Z,6.70
2022-11-02T03:22:05.319Z,6.60
2022-11-02T03:25:56.682Z,6.40
2022-11-02T03:29:17.097Z,6.60
2022-11-02T03:31:57.739Z,6.50
2022-11-02T03:37:06.079Z,6.50
2022-11-02T03:39:46.140Z,6.50
2022-11-02T03:42:14.456Z,6.40
2022-11-02T03:44:42.285Z,6.30
2022-11-02T03:47:10.968Z,6.30
2022-11-02T03:49:37.708Z,6.30
2022-11-02T03:52:05.230Z,6.30
2022-11-02T03:55:04.967Z,6.30
2022-11-02T03:57:37.155Z,6.30
2022-11-02T04:00:08.294Z,6.30
2022-11-02T04:02:36.276Z,6.10
2022-11-02T04:05:02.587Z,6.10
2022-11-02T04:08:21.051Z,6.00
2022-11-02T04:11:10.073Z,5.90
2022-11-02T04:13:54.961Z,5.80
2022-11-02T04:16:27.593Z,5.80
2022-11-02T04:19:12.711Z,5.90
2022-11-02T04:21:38.868Z,6.00
2022-11-02T04:24:26.413Z,6.10
2022-11-02T04:26:52.607Z,6.10
2022-11-02T04:29:18.764Z,6.10
2022-11-02T04:31:45.044Z,6.00
2022-11-02T04:34:12.299Z,6.00
2022-11-02T04:36:38.551Z,5.90
2022-11-02T04:39:04.882Z,5.80
2022-11-02T04:41:43.471Z,5.80
2022-11-02T04:44:10.836Z,5.70
2022-11-02T04:46:37.906Z,5.60
2022-11-02T04:49:04.915Z,5.50
2022-11-02T04:51:31.153Z,5.50
2022-11-02T04:53:58.063Z,5.40
2022-11-02T04:56:25.087Z,5.20
2022-11-02T04:58:52.879Z,5.20
2022-11-02T05:01:19.506Z,5.20
2022-11-02T05:03:49.436Z,5.10
2022-11-02T05:06:16.514Z,6.90
2022-11-02T05:08:42.838Z,5.20
2022-11-02T05:11:10.253Z,5.10
2022-11-02T05:13:36.824Z,5.10
2022-11-02T05:16:03.812Z,5.10
2022-11-02T05:18:30.099Z,5.20
2022-11-02T05:20:57.677Z,5.20
2022-11-02T05:23:24.395Z,5.20
2022-11-02T05:25:59.201Z,5.10
2022-11-02T05:28:25.494Z,5.00
2022-11-02T05:30:51.861Z,4.90
2022-11-02T05:33:18.208Z,4.90
2022-11-02T05:35:44.460Z,4.80
2022-11-02T05:38:10.659Z,4.70
2022-11-02T05:40:38.831Z,4.80
2022-11-02T05:43:05.255Z,4.70
2022-11-02T05:45:32.134Z,4.70
2022-11-02T05:48:07.706Z,4.70
2022-11-02T05:50:35.324Z,4.70
2022-11-02T05:53:01.663Z,4.80
2022-11-02T05:55:28.382Z,5.00
2022-11-02T05:57:55.228Z,5.00
2022-11-02T06:00:21.803Z,5.00
2022-11-02T06:02:48.396Z,5.10
2022-11-02T06:05:14.925Z,5.10
2022-11-02T06:07:41.584Z,5.10
2022-11-02T06:10:08.675Z,5.20
2022-11-02T06:12:34.945Z,5.40
2022-11-02T06:15:01.582Z,5.40
2022-11-02T06:17:27.812Z,5.30
2022-11-02T06:19:54.147Z,5.40
2022-11-02T06:22:20.466Z,5.50
2022-11-02T06:24:46.692Z,5.60
2022-11-02T06:27:13.132Z,5.70
2022-11-02T06:29:39.430Z,5.90
2022-11-02T06:32:06.225Z,6.20
2022-11-02T06:34:32.723Z,6.50
2022-11-02T06:36:59.079Z,6.90
2022-11-02T06:39:25.601Z,7.50
2022-11-02T06:41:51.930Z,7.70
2022-11-02T06:44:18.157Z,7.80
2022-11-02T06:46:44.602Z,8.20
2022-11-02T06:49:11.454Z,8.30
2022-11-02T06:51:40.287Z,8.30
2022-11-02T06:54:08.864Z,8.20
2022-11-02T06:56:35.698Z,8.20
2022-11-02T06:59:02.363Z,8.20
2022-11-02T07:01:28.915Z,8.30
2022-11-02T07:03:56.578Z,8.50
2022-11-02T07:06:24.295Z,8.80
2022-11-02T07:08:50.683Z,9.20
2022-11-02T07:11:17.010Z,9.30
2022-11-02T07:13:43.811Z,9.60
2022-11-02T07:16:10.029Z,10.00
2022-11-02T07:18:36.225Z,10.20
2022-11-02T07:21:02.637Z,10.30
2022-11-02T07:23:28.953Z,10.60
2022-11-02T07:25:55.595Z,10.80
2022-11-02T07:28:22.021Z,11.10
2022-11-02T07:30:48.571Z,11.70
2022-11-02T07:33:14.848Z,12.00
2022-11-02T07:35:41.730Z,11.70
2022-11-02T07:38:09.954Z,13.30
2022-11-02T07:40:36.252Z,11.60
2022-11-02T07:43:03.154Z,11.90
2022-11-02T07:45:30.207Z,12.30
2022-11-02T07:47:56.475Z,12.90
2022-11-02T07:50:24.167Z,13.00
2022-11-02T07:52:57.157Z,13.10
2022-11-02T07:55:25.982Z,13.30
2022-11-02T07:58:02.585Z,15.30
2022-11-02T08:00:31.773Z,13.70
2022-11-02T08:02:58.832Z,15.00
2022-11-02T08:05:25.545Z,14.80
2022-11-02T08:08:09.517Z,15.20
2022-11-02T08:10:39.060Z,15.70
2022-11-02T08:13:10.154Z,16.00
2022-11-02T08:15:37.252Z,16.20
2022-11-02T08:18:08.271Z,16.70
2022-11-02T08:20:35.336Z,17.60
2022-11-02T08:23:02.135Z,17.50
2022-11-02T08:25:29.054Z,17.10
2022-11-02T08:28:00.576Z,16.80
2022-11-02T08:30:27.352Z,16.80
2022-11-02T08:32:56.794Z,17.00
2022-11-02T08:35:23.685Z,17.10
2022-11-02T08:37:54.983Z,16.90
2022-11-02T08:40:21.785Z,16.90
2022-11-02T08:42:49.024Z,16.80
2022-11-02T08:45:16.809Z,16.80
2022-11-02T08:47:43.138Z,16.50
2022-11-02T08:50:09.959Z,16.70
2022-11-02T08:52:40.510Z,16.90
2022-11-02T08:55:08.048Z,16.90
2022-11-02T08:58:02.659Z,17.00
2022-11-02T09:00:31.141Z,16.90
2022-11-02T09:03:04.828Z,16.80
2022-11-02T09:05:45.070Z,16.60
2022-11-02T09:08:13.076Z,16.60
2022-11-02T09:10:40.342Z,16.70
2022-11-02T09:13:07.766Z,16.90
2022-11-02T09:15:36.127Z,16.40
2022-11-02T09:18:03.011Z,17.00
2022-11-02T09:20:29.647Z,16.90
2022-11-02T09:22:56.556Z,17.00
2022-11-02T09:25:22.871Z,17.10
2022-11-02T09:27:55.674Z,17.00
2022-11-02T09:30:22.659Z,17.10
2022-11-02T09:32:59.748Z,17.00
2022-11-02T09:35:30.625Z,17.10
2022-11-02T09:37:56.967Z,17.40
2022-11-02T09:40:24.929Z,17.30
2022-11-02T09:43:47.037Z,17.60
2022-11-02T09:46:24.749Z,17.90
2022-11-02T09:49:55.709Z,17.90
2022-11-02T09:52:36.695Z,17.90
2022-11-02T09:55:04.891Z,18.00
2022-11-02T09:57:32.379Z,17.90
2022-11-02T09:59:58.803Z,18.10
2022-11-02T10:04:03.260Z,17.90
2022-11-02T10:06:30.326Z,17.60
2022-11-02T10:09:14.434Z,17.90
2022-11-02T10:15:09.725Z,18.00
2022-11-02T10:17:37.244Z,17.80
2022-11-02T10:20:07.981Z,17.90
2022-11-02T10:22:38.713Z,17.60
2022-11-02T10:25:09.902Z,17.50
2022-11-02T10:27:39.800Z,17.50
2022-11-02T10:30:17.966Z,17.60
2022-11-02T10:32:45.763Z,17.60
2022-11-02T10:37:47.333Z,17.50
2022-11-02T10:40:56.100Z,17.80
2022-11-02T10:48:32.734Z,17.70
2022-11-02T10:51:21.927Z,17.70
2022-11-02T10:53:50.054Z,17.50
2022-11-02T10:56:21.132Z,17.50
2022-11-02T10:59:25.663Z,17.30
2022-11-02T11:02:25.557Z,17.40
2022-11-02T11:04:53.345Z,17.50
2022-11-02T11:07:26.890Z,17.60
2022-11-02T11:09:56.052Z,17.70
2022-11-02T11:12:38.820Z,17.70
2022-11-02T11:21:06.276Z,17.70
2022-11-02T11:23:32.953Z,17.60
2022-11-02T11:26:07.895Z,17.60
2022-11-02T11:28:46.265Z,17.70
2022-11-02T11:31:16.647Z,17.60
2022-11-02T11:34:01.492Z,17.60
2022-11-02T11:36:30.092Z,17.60
2022-11-02T11:39:02.475Z,17.60
2022-11-02T11:41:29.398Z,17.70
2022-11-02T11:43:55.589Z,17.70
2022-11-02T11:46:22.070Z,17.50
2022-11-02T11:48:53.504Z,17.40
2022-11-02T11:51:29.942Z,17.60
2022-11-02T11:54:23.580Z,17.60
2022-11-02T11:56:52.266Z,17.80
2022-11-02T12:01:17.087Z,17.70
2022-11-02T12:04:26.777Z,17.90
2022-11-02T12:10:04.676Z,18.00
2022-11-02T12:16:01.267Z,18.10
2022-11-02T12:23:06.539Z,18.10
2022-11-02T12:30:02.453Z,17.80
2022-11-02T12:32:54.713Z,17.60
2022-11-02T12:35:37.840Z,17.40
2022-11-02T12:39:13.589Z,17.30
2022-11-02T12:42:31.691Z,17.40
2022-11-02T12:45:22.395Z,17.30
2022-11-02T12:47:59.330Z,17.30
2022-11-02T12:51:01.345Z,17.40
2022-11-02T12:54:30.580Z,17.50
2022-11-02T12:56:56.869Z,17.60
2022-11-02T12:59:27.860Z,17.60
2022-11-02T13:03:47.637Z,17.50
2022-11-02T13:06:17.557Z,17.50
2022-11-02T13:09:01.008Z,17.30
2022-11-02T13:11:42.260Z,17.20
2022-11-02T13:14:15.947Z,17.10
2022-11-02T13:17:01.472Z,17.20
2022-11-02T13:19:34.510Z,17.10
2022-11-02T13:22:00.811Z,17.00
2022-11-02T13:24:31.926Z,16.80
2022-11-02T13:27:13.775Z,16.60
2022-11-02T13:29:48.014Z,16.30
2022-11-02T13:32:38.524Z,16.10
2022-11-02T13:35:12.232Z,15.90
2022-11-02T13:37:40.893Z,15.80
2022-11-02T13:40:22.163Z,15.70
2022-11-02T13:44:31.932Z,15.70
2022-11-02T13:48:35.862Z,15.70
2022-11-02T13:51:06.389Z,15.80
2022-11-02T13:53:38.966Z,15.80
2022-11-02T13:56:10.308Z,15.70
2022-11-02T13:58:48.409Z,15.80
2022-11-02T14:01:17.430Z,15.80
2022-11-02T14:04:01.459Z,15.90
2022-11-02T14:06:28.693Z,15.80
2022-11-02T14:09:02.597Z,15.80
2022-11-02T14:13:33.863Z,15.70
2022-11-02T14:16:01.097Z,15.50
2022-11-02T14:18:30.537Z,15.50
2022-11-02T14:20:57.047Z,15.40
2022-11-02T14:23:44.213Z,15.40
2022-11-02T14:26:29.830Z,15.90
2022-11-02T14:28:57.122Z,15.40
2022-11-02T14:31:29.780Z,14.40
2022-11-02T14:34:18.427Z,15.40
2022-11-02T14:36:55.622Z,15.30
2022-11-02T14:42:13.771Z,15.30
2022-11-02T14:45:10.003Z,15.20
2022-11-02T14:47:37.362Z,15.00
2022-11-02T14:50:14.850Z,14.90
2022-11-02T14:52:43.030Z,14.80
2022-11-02T14:55:23.585Z,14.80
2022-11-02T14:57:55.418Z,15.40
2022-11-02T15:00:26.020Z,14.60
2022-11-02T15:02:52.739Z,14.40
2022-11-02T15:05:38.215Z,14.30
2022-11-02T15:08:06.512Z,14.10
2022-11-02T15:10:40.962Z,14.00
2022-11-02T15:13:47.690Z,13.90
2022-11-02T15:16:22.096Z,13.80
2022-11-02T15:18:48.876Z,13.70
2022-11-02T15:21:24.274Z,13.60
2022-11-02T15:24:17.325Z,13.60
2022-11-02T15:26:55.766Z,13.70
2022-11-02T15:29:36.706Z,13.40
2022-11-02T15:32:05.535Z,13.30
2022-11-02T15:34:39.055Z,13.20
2022-11-02T15:37:06.259Z,13.20
2022-11-02T15:39:34.058Z,14.90
2022-11-02T15:42:18.670Z,13.20
2022-11-02T15:48:11.957Z,13.10
2022-11-02T15:53:51.403Z,12.90
2022-11-02T16:01:35.372Z,13.00
2022-11-02T16:04:06.365Z,13.00
2022-11-02T16:06:44.002Z,13.00
2022-11-02T16:10:10.250Z,13.00
2022-11-02T16:12:38.627Z,12.90
2022-11-02T16:15:17.429Z,12.90
2022-11-02T16:17:48.112Z,12.80
2022-11-02T16:20:22.635Z,12.80
2022-11-02T16:23:04.610Z,12.70
2022-11-02T16:25:38.675Z,12.50
2022-11-02T16:28:29.047Z,12.50
2022-11-02T16:31:38.437Z,12.50
2022-11-02T16:34:21.524Z,12.40
2022-11-02T16:36:47.991Z,12.30
2022-11-02T16:39:34.002Z,12.10
2022-11-02T16:42:02.256Z,12.00
2022-11-02T16:44:30.868Z,11.80
2022-11-02T16:47:20.537Z,11.60
2022-11-02T16:50:21.374Z,11.30
2022-11-02T16:53:03.735Z,11.20
2022-11-02T16:56:32.781Z,11.10
2022-11-02T16:59:04.872Z,10.90
2022-11-02T17:01:39.158Z,10.70
2022-11-02T17:04:27.854Z,10.60
2022-11-02T17:07:22.153Z,10.40
2022-11-02T17:09:57.989Z,10.30
2022-11-02T17:12:35.937Z,10.10
2022-11-02T17:15:16.585Z,9.90
2022-11-02T17:17:43.782Z,9.70
2022-11-02T17:20:19.164Z,9.40
2022-11-02T17:22:54.727Z,9.30
2022-11-02T17:25:43.499Z,9.20
2022-11-02T17:29:03.716Z,9.10
2022-11-02T17:31:34.839Z,9.00
2022-11-02T17:34:09.711Z,8.90
2022-11-02T17:36:42.805Z,8.80
2022-11-02T17:39:13.915Z,8.70
2022-11-02T17:41:58.969Z,8.70
2022-11-02T17:44:26.571Z,8.70
2022-11-02T17:46:55.106Z,8.60
2022-11-02T17:49:22.106Z,8.60
2022-11-02T17:51:48.477Z,8.60
2022-11-02T17:54:15.049Z,8.20
2022-11-02T17:56:42.780Z,8.70
2022-11-02T17:59:11.050Z,8.70
2022-11-02T18:01:38.653Z,8.80
2022-11-02T18:04:04.983Z,8.90
2022-11-02T18:06:31.331Z,8.80
2022-11-02T18:09:24.023Z,8.80
2022-11-02T18:11:50.468Z,8.90
2022-11-02T18:14:17.518Z,8.90
2022-11-02T18:16:44.664Z,9.00
2022-11-02T18:19:11.903Z,9.00
2022-11-02T18:21:38.669Z,9.00
2022-11-02T18:24:07.142Z,9.00
2022-11-02T18:26:35.910Z,9.00
2022-11-02T18:29:05.788Z,8.90
2022-11-02T18:31:35.427Z,8.80
2022-11-02T18:34:01.995Z,8.80
2022-11-02T18:36:29.033Z,8.80
2022-11-02T18:38:55.954Z,8.70
2022-11-02T18:41:31.390Z,8.70
2022-11-02T18:44:05.745Z,8.60
2022-11-02T18:46:35.803Z,8.60
2022-11-02T18:49:04.762Z,8.60
2022-11-02T18:51:32.760Z,8.50
2022-11-02T18:54:05.315Z,8.40
2022-11-02T18:56:31.830Z,8.30
2022-11-02T18:58:58.522Z,8.30
2022-11-02T19:01:25.040Z,8.20
2022-11-02T19:03:58.878Z,8.00
2022-11-02T19:06:45.597Z,7.90
2022-11-02T19:09:18.277Z,7.80
2022-11-02T19:12:07.275Z,7.80
2022-11-02T19:14:39.358Z,7.60
2022-11-02T19:17:06.335Z,7.60
2022-11-02T19:19:33.501Z,7.50
2022-11-02T19:22:01.509Z,7.30
2022-11-02T19:24:29.368Z,7.40
2022-11-02T19:26:56.621Z,7.40
2022-11-02T19:29:24.272Z,7.50
2022-11-02T19:31:51.365Z,7.50
2022-11-02T19:34:18.514Z,7.60
2022-11-02T19:36:45.690Z,7.60
2022-11-02T19:39:12.090Z,7.60
2022-11-02T19:41:39.510Z,7.60
2022-11-02T19:44:07.615Z,7.60
2022-11-02T19:46:34.023Z,7.60
2022-11-02T19:49:01.985Z,7.60
2022-11-02T19:51:30.514Z,6.10
2022-11-02T19:54:01.194Z,7.60
2022-11-02T19:56:32.170Z,7.60
2022-11-02T19:58:59.709Z,7.50
2022-11-02T20:01:34.213Z,7.60
2022-11-02T20:04:01.269Z,7.60
2022-11-02T20:06:32.977Z,7.70
2022-11-02T20:09:01.194Z,7.70
2022-11-02T20:11:28.133Z,7.70
2022-11-02T20:13:56.522Z,7.80
2022-11-02T20:16:23.047Z,7.90
2022-11-02T20:18:50.442Z,7.80
2022-11-02T20:21:24.643Z,7.70
2022-11-02T20:23:53.895Z,7.70
2022-11-02T20:26:27.382Z,7.60
2022-11-02T20:28:53.664Z,7.70
2022-11-02T20:31:25.855Z,7.60
2022-11-02T20:33:54.878Z,7.60
2022-11-02T20:36:22.380Z,7.40
2022-11-02T20:38:53.741Z,7.20
2022-11-02T20:41:20.957Z,7.10
2022-11-02T20:43:52.896Z,6.90
2022-11-02T20:46:37.007Z,6.80
2022-11-02T20:49:14.452Z,6.80
2022-11-02T20:51:50.053Z,6.60
2022-11-02T20:54:20.304Z,6.50
2022-11-02T20:56:47.728Z,6.50
2022-11-02T20:59:21.164Z,6.40
2022-11-02T21:01:49.668Z,6.90
2022-11-02T21:04:20.960Z,6.30
2022-11-02T21:06:51.488Z,6.30
2022-11-02T21:09:19.312Z,6.10
2022-11-02T21:12:04.524Z,6.00
2022-11-02T21:14:30.982Z,6.00
2022-11-02T21:16:57.595Z,5.90
2022-11-02T21:19:24.362Z,5.90
2022-11-02T21:21:55.044Z,5.90
2022-11-02T21:24:24.938Z,5.90
2022-11-02T21:26:52.230Z,5.80
2022-11-02T21:29:19.800Z,5.80
2022-11-02T21:31:46.429Z,5.70
2022-11-02T21:34:14.507Z,5.70
2022-11-02T21:36:40.923Z,5.50
2022-11-02T21:39:12.140Z,5.50
2022-11-02T21:41:49.881Z,5.30
2022-11-02T21:44:16.560Z,5.30
2022-11-02T21:46:44.886Z,5.30
2022-11-02T21:49:14.342Z,5.30
2022-11-02T21:51:50.746Z,5.40
2022-11-02T21:54:18.305Z,5.50
2022-11-02T21:56:46.536Z,5.90
2022-11-02T21:59:12.949Z,6.00
2022-11-02T22:01:46.744Z,6.10
2022-11-02T22:04:33.326Z,6.10
2022-11-02T22:06:59.957Z,6.00
2022-11-02T22:09:28.036Z,5.90
2022-11-02T22:12:13.153Z,5.70
2022-11-02T22:14:40.042Z,5.70
2022-11-02T22:17:16.284Z,5.70
2022-11-02T22:19:49.079Z,5.90
2022-11-02T22:22:15.359Z,5.80
2022-11-02T22:24:44.786Z,5.70
2022-11-02T22:27:11.571Z,5.50
2022-11-02T22:29:37.987Z,5.40
2022-11-02T22:32:04.657Z,5.30
2022-11-02T22:34:30.896Z,5.10
2022-11-02T22:38:47.786Z,4.90
2022-11-02T22:41:15.715Z,4.80
2022-11-02T22:43:42.609Z,4.60
2022-11-02T22:46:08.918Z,4.60
2022-11-02T22:48:35.345Z,4.50
2022-11-02T22:51:02.197Z,4.60
2022-11-02T22:53:28.430Z,4.70
2022-11-02T22:56:14.333Z,4.70
2022-11-02T22:58:47.911Z,4.60
2022-11-02T23:01:17.464Z,4.60
2022-11-02T23:03:43.843Z,4.50
2022-11-02T23:06:10.634Z,4.40
2022-11-02T23:08:39.065Z,4.50
2022-11-02T23:11:21.490Z,4.50
2022-11-02T23:13:50.226Z,4.30
2022-11-02T23:16:22.830Z,4.30
2022-11-02T23:19:22.057Z,4.20
2022-11-02T23:22:29.954Z,4.20
2022-11-02T23:25:14.330Z,4.10
2022-11-02T23:28:06.848Z,4.00
2022-11-02T23:30:53.453Z,4.10
2022-11-02T23:33:20.387Z,4.40
2022-11-02T23:36:05.843Z,4.40
2022-11-02T23:38:50.420Z,4.30
2022-11-02T23:41:18.118Z,4.20
2022-11-02T23:43:44.408Z,4.20
2022-11-02T23:46:10.839Z,4.10
2022-11-02T23:48:37.173Z,4.00
2022-11-02T23:51:22.623Z,3.90
2022-11-02T23:54:07.803Z,3.80
2022-11-02T23:56:43.882Z,3.70
2022-11-02T23:59:14.351Z,3.70
